Pagrindinis puslapis
METAR-TAF:

METAR-TAF

Oro uostai :

Chugiak, Aliaska, Jungtinės Amerikos Valstijos

platuma: 61-25N, ilguma: 149-31W, Aukštis: 29 m

Dabartinis oras

Ataskaita buvo paskelbta 23 minutes, ne 08:56 UTC
Vėjas 4 kt iš Pietvakarių
Temperatūra -8°C
Drėgmė 67%
Slėgis 1001 hPa
Matomumas: 16.1 km
Su prošvaistėmis ne aukštis 1700 ft
Apsiniaukę ne aukštis 2300 ft

METAR: PABV 260856Z AUTO 22004KT 10SM BKN017 OVC023 M08/M13 A2956 RMK AO2 SLP018 T10831133 410501211 51002 FZRANO

Laikas: 00:19 (09:19 UTC)


TAF: trūkstamas

Orai ataskaitas ir orų prognozės (METAR, TAF).

turimą stotys yra geltonos ir raudonos taškus žemėlapyje.

Perkelti pele per norėdami pamatyti stoties vardą.

Tada spustelėkite, norėdami matyti oro stebėjimo ir prognozės.

Norėdami pakeisti žemėlapį: spustelėkite ant žalios mygtukų su juodo kryžiaus žemyn,; žalią mygtuką su brūkšneliu, jei norite nutolinti; arba žalių rodyklių gretimoms žemėlapius.


METAR-TAF: